createdAt,value
2023-03-30T00:03:07.959Z,100006.00
2023-03-30T00:07:13.079Z,99996.34
2023-03-30T00:11:17.381Z,99994.47
2023-03-30T00:15:22.726Z,99973.41
2023-03-30T00:19:26.580Z,99975.06
2023-03-30T00:23:31.530Z,99975.91
2023-03-30T00:27:34.733Z,99973.25
2023-03-30T00:31:37.964Z,99964.50
2023-03-30T00:35:41.209Z,99963.59
2023-03-30T00:39:45.724Z,99960.03
2023-03-30T00:44:00.835Z,99960.81
2023-03-30T00:48:08.445Z,99965.22
2023-03-30T00:52:13.244Z,99957.38
2023-03-30T00:56:20.613Z,99951.25
2023-03-30T01:00:23.886Z,99949.50
2023-03-30T01:04:28.396Z,99958.28
2023-03-30T01:08:33.493Z,99950.47
2023-03-30T01:12:38.916Z,99947.75
2023-03-30T01:16:49.016Z,99947.66
2023-03-30T01:21:30.038Z,99948.50
2023-03-30T01:25:57.834Z,99942.34
2023-03-30T01:30:25.628Z,99933.59
2023-03-30T01:35:10.396Z,99933.59
2023-03-30T01:39:23.274Z,99940.53
2023-03-30T01:43:35.629Z,99935.31
2023-03-30T01:47:43.571Z,99930.06
2023-03-30T01:51:52.336Z,99938.81
2023-03-30T01:56:02.597Z,99933.59
2023-03-30T02:00:14.738Z,99938.03
2023-03-30T02:04:21.639Z,99937.16
2023-03-30T02:08:30.782Z,99928.44
2023-03-30T02:12:36.356Z,99930.25
2023-03-30T02:16:43.819Z,99925.94
2023-03-30T02:20:47.641Z,99931.22
2023-03-30T02:24:54.202Z,99919.88
2023-03-30T02:28:58.985Z,99927.75
2023-03-30T02:33:06.252Z,99945.22
2023-03-30T02:37:25.033Z,99945.25
2023-03-30T02:41:39.539Z,99933.91
2023-03-30T02:45:54.659Z,99930.34
2023-03-30T02:50:02.880Z,99937.38
2023-03-30T02:54:19.378Z,99928.59
2023-03-30T02:58:45.985Z,99930.25
2023-03-30T03:02:59.490Z,99924.84
2023-03-30T03:07:05.607Z,99921.06
2023-03-30T03:11:09.107Z,99908.69
2023-03-30T03:15:13.906Z,99903.28
2023-03-30T03:19:30.774Z,99893.69
2023-03-30T03:23:37.124Z,99905.00
2023-03-30T03:27:47.345Z,99903.28
2023-03-30T03:31:56.474Z,99899.03
2023-03-30T03:36:04.348Z,99877.97
2023-03-30T03:40:11.474Z,99888.22
2023-03-30T03:44:15.613Z,99886.38
2023-03-30T03:48:20.720Z,99885.50
2023-03-30T03:52:27.198Z,99883.66
2023-03-30T03:56:30.294Z,99878.50
2023-03-30T04:00:33.928Z,99871.66
2023-03-30T04:04:37.490Z,99866.53
2023-03-30T04:08:42.100Z,99863.97
2023-03-30T04:13:17.345Z,99869.16
2023-03-30T04:17:58.226Z,99849.97
2023-03-30T04:22:25.479Z,99851.53
2023-03-30T04:26:50.452Z,99866.31
2023-03-30T04:31:12.939Z,99876.78
2023-03-30T04:35:16.643Z,99878.53
2023-03-30T04:39:40.070Z,99864.59
2023-03-30T04:44:12.787Z,99855.84
2023-03-30T04:48:35.532Z,99846.16
2023-03-30T04:53:11.165Z,99842.66
2023-03-30T04:57:46.479Z,99842.59
2023-03-30T05:02:17.296Z,99833.09
2023-03-30T05:06:30.989Z,99847.13
2023-03-30T05:10:54.400Z,99847.09
2023-03-30T05:15:17.721Z,99855.78
2023-03-30T05:19:37.480Z,99847.09
2023-03-30T05:24:03.800Z,99834.06
2023-03-30T05:28:43.238Z,99818.31
2023-03-30T05:33:05.311Z,99811.19
2023-03-30T05:37:31.926Z,99824.09
2023-03-30T05:41:57.804Z,99847.63
2023-03-30T05:46:28.010Z,99850.41
2023-03-30T05:50:53.019Z,99834.81
2023-03-30T05:55:08.211Z,99810.47
2023-03-30T05:59:34.451Z,99819.22
2023-03-30T06:04:04.066Z,99812.28
2023-03-30T06:08:08.910Z,99824.56
2023-03-30T06:12:13.894Z,99829.94
2023-03-30T06:16:17.203Z,99823.97
2023-03-30T06:20:21.718Z,99831.16
2023-03-30T06:24:26.692Z,99822.53
2023-03-30T06:28:32.284Z,99805.97
2023-03-30T06:32:35.488Z,99792.13
2023-03-30T06:37:01.238Z,99793.97
2023-03-30T06:41:08.447Z,99794.13
2023-03-30T06:45:15.473Z,99802.94
2023-03-30T06:49:19.415Z,99801.31
2023-03-30T06:53:42.403Z,99811.94
2023-03-30T06:57:45.670Z,99815.56
2023-03-30T07:01:51.085Z,99808.66
2023-03-30T07:06:07.763Z,99814.81
2023-03-30T07:10:13.102Z,99805.22
2023-03-30T07:14:16.145Z,99801.81
2023-03-30T07:18:22.035Z,99821.09
2023-03-30T07:22:26.072Z,99810.72
2023-03-30T07:26:29.466Z,99808.22
2023-03-30T07:30:41.929Z,99804.81
2023-03-30T07:34:48.454Z,99798.72
2023-03-30T07:38:53.050Z,99788.41
2023-03-30T07:42:56.788Z,99807.78
2023-03-30T07:47:01.710Z,99798.31
2023-03-30T07:51:09.305Z,99796.75
2023-03-30T07:55:18.682Z,99796.88
2023-03-30T07:59:28.978Z,99792.56
2023-03-30T08:03:39.876Z,99780.44
2023-03-30T08:07:44.807Z,99795.47
2023-03-30T08:11:57.273Z,99802.63
2023-03-30T08:16:01.486Z,99814.16
2023-03-30T08:20:10.735Z,99815.94
2023-03-30T08:24:15.202Z,99802.06
2023-03-30T08:28:18.266Z,99793.38
2023-03-30T08:32:21.290Z,99796.13
2023-03-30T08:36:24.349Z,99786.59
2023-03-30T08:40:29.005Z,99769.09
2023-03-30T08:44:35.352Z,99777.91
2023-03-30T08:48:40.114Z,99783.22
2023-03-30T08:52:43.990Z,99770.97
2023-03-30T08:56:58.964Z,99777.13
2023-03-30T09:01:10.918Z,99779.81
2023-03-30T09:05:22.703Z,99764.00
2023-03-30T09:09:29.729Z,99766.69
2023-03-30T09:13:37.970Z,99754.41
2023-03-30T09:17:44.042Z,99750.00
2023-03-30T09:21:48.505Z,99752.66
2023-03-30T09:26:02.985Z,99750.91
2023-03-30T09:30:18.783Z,99751.75
2023-03-30T09:34:28.510Z,99744.72
2023-03-30T09:38:32.348Z,99728.06
2023-03-30T09:42:45.214Z,99730.66
2023-03-30T09:46:50.746Z,99725.38
2023-03-30T09:50:53.972Z,99724.47
2023-03-30T09:54:57.422Z,99730.56
2023-03-30T09:59:21.477Z,99713.88
2023-03-30T10:03:27.627Z,99711.22
2023-03-30T10:07:34.461Z,99698.91
2023-03-30T10:11:42.261Z,99695.41
2023-03-30T10:15:48.633Z,99683.94
2023-03-30T10:20:07.231Z,99684.81
2023-03-30T10:24:23.855Z,99676.88
2023-03-30T10:28:28.772Z,99676.03
2023-03-30T10:32:32.916Z,99667.25
2023-03-30T10:36:40.799Z,99651.41
2023-03-30T10:40:46.272Z,99639.94
2023-03-30T10:44:52.978Z,99635.53
2023-03-30T10:49:11.109Z,99623.19
2023-03-30T10:53:29.169Z,99617.03
2023-03-30T10:57:41.984Z,99610.81
2023-03-30T11:01:55.607Z,99609.97
2023-03-30T11:06:03.452Z,99609.06
2023-03-30T11:10:14.793Z,99606.41
2023-03-30T11:14:24.214Z,99612.56
2023-03-30T11:18:34.203Z,99609.91
2023-03-30T11:22:42.379Z,99603.66
2023-03-30T11:26:53.390Z,99595.72
2023-03-30T11:31:04.338Z,99585.16
2023-03-30T11:35:15.410Z,99577.28
2023-03-30T11:39:31.687Z,99565.84
2023-03-30T11:43:37.341Z,99566.72
2023-03-30T11:48:01.227Z,99570.25
2023-03-30T11:52:13.693Z,99565.81
2023-03-30T11:56:26.187Z,99556.06
2023-03-30T12:00:48.380Z,99534.88
2023-03-30T12:04:57.974Z,99505.72
2023-03-30T12:09:24.390Z,99480.84
2023-03-30T12:13:38.160Z,99475.41
2023-03-30T12:17:54.720Z,99454.06
2023-03-30T12:22:04.274Z,99433.63
2023-03-30T12:26:11.732Z,99444.91
2023-03-30T12:30:24.605Z,99403.31
2023-03-30T12:34:32.986Z,99402.19
2023-03-30T12:38:39.301Z,99404.59
2023-03-30T12:42:54.437Z,99401.81
2023-03-30T12:47:12.552Z,99389.47
2023-03-30T12:51:32.050Z,99383.31
2023-03-30T12:55:45.536Z,99378.03
2023-03-30T13:00:07.359Z,99393.09
2023-03-30T13:04:13.762Z,99394.06
2023-03-30T13:08:23.316Z,99372.06
2023-03-30T13:12:33.615Z,99364.97
2023-03-30T13:17:16.869Z,99356.00
2023-03-30T13:21:23.952Z,99339.13
2023-03-30T13:25:38.532Z,99356.81
2023-03-30T13:29:42.484Z,99351.47
2023-03-30T13:33:51.176Z,99351.44
2023-03-30T13:38:12.820Z,99356.63
2023-03-30T13:42:29.785Z,99380.44
2023-03-30T13:46:39.343Z,99370.63
2023-03-30T13:50:49.513Z,99374.09
2023-03-30T13:54:53.317Z,99358.34
2023-03-30T13:59:06.239Z,99349.56
2023-03-30T14:03:32.414Z,99347.88
2023-03-30T14:07:43.457Z,99333.78
2023-03-30T14:11:50.276Z,99316.16
2023-03-30T14:15:56.412Z,99317.06
2023-03-30T14:20:13.245Z,99310.81
2023-03-30T14:24:18.816Z,99317.13
2023-03-30T14:28:22.515Z,99332.22
2023-03-30T14:32:27.215Z,99327.84
2023-03-30T14:36:30.642Z,99330.56
2023-03-30T14:40:39.139Z,99328.78
2023-03-30T14:44:42.657Z,99318.19
2023-03-30T14:48:50.715Z,99312.84
2023-03-30T14:52:54.632Z,99317.19
2023-03-30T14:57:00.077Z,99301.41
2023-03-30T15:01:09.811Z,99305.78
2023-03-30T15:05:17.998Z,99288.19
2023-03-30T15:09:22.884Z,99296.19
2023-03-30T15:13:31.937Z,99282.97
2023-03-30T15:17:36.561Z,99275.91
2023-03-30T15:21:41.754Z,99269.78
2023-03-30T15:25:45.605Z,99294.41
2023-03-30T15:29:49.364Z,99305.91
2023-03-30T15:33:54.130Z,99348.22
2023-03-30T15:38:00.343Z,99335.88
2023-03-30T15:42:06.193Z,99357.09
2023-03-30T15:46:14.656Z,99351.81
2023-03-30T15:50:20.520Z,99348.25
2023-03-30T15:54:31.397Z,99296.28
2023-03-30T15:58:35.847Z,99343.22
2023-03-30T16:02:41.057Z,99360.00
2023-03-30T16:06:46.673Z,99379.41
2023-03-30T16:10:55.350Z,99392.63
2023-03-30T16:14:59.631Z,99401.47
2023-03-30T16:19:02.781Z,99387.44
2023-03-30T16:23:08.434Z,99376.84
2023-03-30T16:27:14.400Z,99336.31
2023-03-30T16:31:20.792Z,99376.00
2023-03-30T16:35:23.933Z,99378.72
2023-03-30T16:39:28.930Z,99383.97
2023-03-30T16:43:33.532Z,99400.69
2023-03-30T16:47:38.127Z,99392.69
2023-03-30T16:51:41.578Z,99396.28
2023-03-30T16:55:44.889Z,99394.56
2023-03-30T16:59:49.433Z,99400.78
2023-03-30T17:03:52.576Z,99393.00
2023-03-30T17:07:56.240Z,99399.25
2023-03-30T17:11:59.301Z,99403.75
2023-03-30T17:16:03.909Z,99411.75
2023-03-30T17:20:22.368Z,99410.16
2023-03-30T17:24:25.518Z,99418.97
2023-03-30T17:28:30.287Z,99426.97
2023-03-30T17:32:34.726Z,99428.72
2023-03-30T17:36:37.953Z,99430.47
2023-03-30T17:40:41.009Z,99434.91
2023-03-30T17:44:44.750Z,99427.84
2023-03-30T17:48:51.213Z,99433.09
2023-03-30T17:52:55.614Z,99423.28
2023-03-30T17:56:58.632Z,99416.13
2023-03-30T18:01:04.229Z,99401.91
2023-03-30T18:05:09.926Z,99407.13
2023-03-30T18:09:16.210Z,99399.09
2023-03-30T18:13:20.128Z,99391.13
2023-03-30T18:17:25.213Z,99397.25
2023-03-30T18:21:29.655Z,99398.97
2023-03-30T18:25:33.130Z,99396.28
2023-03-30T18:29:37.769Z,99401.50
2023-03-30T18:33:40.913Z,99410.34
2023-03-30T18:37:45.937Z,99415.56
2023-03-30T18:41:49.353Z,99404.09
2023-03-30T18:45:52.785Z,99396.13
2023-03-30T18:49:55.944Z,99383.78
2023-03-30T18:54:00.356Z,99370.56
2023-03-30T18:58:06.544Z,99358.25
2023-03-30T19:02:10.499Z,99366.22
2023-03-30T19:06:18.433Z,99381.22
2023-03-30T19:10:26.711Z,99375.88
2023-03-30T19:14:29.920Z,99368.88
2023-03-30T19:18:33.083Z,99374.16
2023-03-30T19:22:36.217Z,99382.97
2023-03-30T19:26:41.031Z,99371.53
2023-03-30T19:30:44.615Z,99360.09
2023-03-30T19:34:48.112Z,99355.69
2023-03-30T19:38:51.232Z,99368.97
2023-03-30T19:42:56.059Z,99380.44
2023-03-30T19:47:03.921Z,99383.13
2023-03-30T19:51:07.385Z,99385.78
2023-03-30T19:55:11.487Z,99398.16
2023-03-30T19:59:16.868Z,99410.44
2023-03-30T20:03:21.304Z,99407.88
2023-03-30T20:07:24.627Z,99401.72
2023-03-30T20:11:27.853Z,99396.44
2023-03-30T20:15:32.512Z,99403.53
2023-03-30T20:19:35.733Z,99410.63
2023-03-30T20:23:38.779Z,99418.56
2023-03-30T20:27:41.846Z,99414.22
2023-03-30T20:31:46.482Z,99422.19
2023-03-30T20:35:51.978Z,99417.78
2023-03-30T20:40:03.547Z,99436.28
2023-03-30T20:44:11.321Z,99431.94
2023-03-30T20:48:26.433Z,99422.22
2023-03-30T20:52:30.765Z,99425.78
2023-03-30T20:56:33.932Z,99416.09
2023-03-30T21:00:37.033Z,99424.00
2023-03-30T21:04:43.239Z,99426.66
2023-03-30T21:08:46.620Z,99433.75
2023-03-30T21:12:49.736Z,99443.41
2023-03-30T21:16:52.835Z,99446.00
2023-03-30T21:20:57.872Z,99447.69
2023-03-30T21:25:01.264Z,99446.81
2023-03-30T21:29:04.888Z,99440.56
2023-03-30T21:33:08.492Z,99435.28
2023-03-30T21:37:13.198Z,99434.41
2023-03-30T21:41:17.586Z,99438.81
2023-03-30T21:45:20.850Z,99436.22
2023-03-30T21:49:24.119Z,99428.31
2023-03-30T21:53:30.318Z,99421.28
2023-03-30T21:57:33.600Z,99423.06
2023-03-30T22:01:36.756Z,99435.53
2023-03-30T22:05:40.393Z,99439.13
2023-03-30T22:09:45.001Z,99433.03
2023-03-30T22:13:48.922Z,99446.31
2023-03-30T22:17:52.169Z,99433.13
2023-03-30T22:21:55.699Z,99435.78
2023-03-30T22:26:00.990Z,99441.13
2023-03-30T22:30:04.961Z,99456.19
2023-03-30T22:34:08.565Z,99437.75
2023-03-30T22:38:12.265Z,99436.06
2023-03-30T22:42:16.678Z,99437.03
2023-03-30T22:46:19.752Z,99430.00
2023-03-30T22:50:22.993Z,99435.38
2023-03-30T22:54:26.319Z,99435.44
2023-03-30T22:58:30.710Z,99436.41
2023-03-30T23:02:33.808Z,99436.47
2023-03-30T23:06:37.301Z,99433.00
2023-03-30T23:10:43.814Z,99421.59
2023-03-30T23:14:48.276Z,99420.72
2023-03-30T23:18:51.951Z,99411.94
2023-03-30T23:22:55.124Z,99397.88
2023-03-30T23:26:58.179Z,99404.94
2023-03-30T23:31:09.137Z,99411.09
2023-03-30T23:35:12.221Z,99400.63
2023-03-30T23:39:15.244Z,99405.91
2023-03-30T23:43:18.270Z,99401.50
2023-03-30T23:47:22.672Z,99401.53
2023-03-30T23:51:25.808Z,99405.09
2023-03-30T23:55:29.175Z,99403.34
2023-03-30T23:59:32.173Z,99402.50
